Time;durP1;ratioP1;P1;durP2;ratioP2;P2;SDS_P1;SDS_P2;PMS_P1;PMS_P2;Temp;Humidity;BMP_temperature;BMP_pressure;BME280_temperature;BME280_humidity;BME280_pressure;Samples;Min_cycle;Max_cycle;Signal;HPM_P1;HPM_P2
2022/08/10 00:00:19;;;;;;;62.72;41.38;;;;;;;22.52;60.48;99535.50;5021415;28;20073;-79
2022/08/10 00:02:59;;;;;;;52.50;36.95;;;;;;;22.53;60.21;99529.03;5055858;28;20064;-78
2022/08/10 00:05:26;;;;;;;51.45;36.53;;;;;;;22.51;60.00;99524.81;5038036;28;20044;-77
2022/08/10 00:07:53;;;;;;;49.50;35.33;;;;;;;22.49;60.04;99526.88;5055541;28;20080;-78
2022/08/10 00:10:21;;;;;;;51.83;37.15;;;;;;;22.49;59.77;99527.72;5037514;28;20132;-77
2022/08/10 00:12:47;;;;;;;50.15;35.88;;;;;;;22.52;59.80;99538.22;5054342;28;20374;-77
2022/08/10 00:15:15;;;;;;;52.85;34.63;;;;;;;22.51;59.57;99536.53;5021237;28;20048;-78
2022/08/10 00:17:41;;;;;;;44.93;33.27;;;;;;;22.46;59.26;99522.66;5020960;28;20087;-79
2022/08/10 00:20:08;;;;;;;49.22;33.33;;;;;;;22.55;59.11;99539.72;5053908;28;20055;-78
2022/08/10 00:22:34;;;;;;;52.95;32.38;;;;;;;22.54;58.78;99543.50;5053985;28;20045;-78
2022/08/10 00:25:01;;;;;;;45.67;31.67;;;;;;;22.52;58.85;99543.66;5055283;28;20045;-78
2022/08/10 00:27:29;;;;;;;43.72;31.30;;;;;;;22.46;58.69;99533.56;5054093;28;20041;-77
2022/08/10 00:29:55;;;;;;;46.60;32.33;;;;;;;22.48;58.90;99547.81;5020731;28;20044;-77
2022/08/10 00:32:22;;;;;;;50.83;32.38;;;;;;;22.48;58.88;99539.66;5037260;28;20068;-77
2022/08/10 00:34:48;;;;;;;48.58;33.35;;;;;;;22.51;58.75;99544.72;5054060;28;20052;-77
2022/08/10 00:37:16;;;;;;;47.42;33.65;;;;;;;22.56;58.78;99549.56;5055665;28;20060;-76
2022/08/10 00:39:42;;;;;;;53.27;33.37;;;;;;;22.51;58.60;99531.09;5036907;28;20152;-77
2022/08/10 00:42:10;;;;;;;54.50;35.67;;;;;;;22.62;58.56;99547.97;5053286;28;20064;-77
2022/08/10 00:44:41;;;;;;;50.00;34.55;;;;;;;22.59;58.58;99551.91;5053233;28;20055;-77
2022/08/10 00:47:08;;;;;;;64.85;39.83;;;;;;;22.56;58.89;99552.28;5053634;28;20037;-78
2022/08/10 00:49:34;;;;;;;62.75;40.40;;;;;;;22.52;59.01;99554.56;5036992;28;20144;-78
2022/08/10 00:52:01;;;;;;;68.07;41.00;;;;;;;22.50;59.59;99556.66;5054759;28;20068;-77
2022/08/10 00:54:28;;;;;;;53.28;38.63;;;;;;;22.40;59.47;99552.56;5054785;28;20041;-77
2022/08/10 00:56:54;;;;;;;66.15;40.67;;;;;;;22.46;59.33;99563.53;5036500;28;20036;-77
2022/08/10 00:59:20;;;;;;;59.75;41.90;;;;;;;22.52;59.59;99568.19;5053092;28;20052;-76
2022/08/10 01:01:46;;;;;;;65.80;43.13;;;;;;;22.53;59.75;99558.16;5053194;28;20036;-78
2022/08/10 01:04:12;;;;;;;76.25;46.47;;;;;;;22.56;59.74;99560.47;5036897;28;20504;-77
2022/08/10 01:07:08;;;;;;;68.55;44.10;;;;;;;22.44;59.75;99557.41;5053053;28;20049;-77
2022/08/10 01:09:58;;;;;;;66.00;42.60;;;;;;;22.48;60.07;99568.78;5054412;28;20049;-76
2022/08/10 01:12:35;;;;;;;65.60;44.40;;;;;;;22.47;60.29;99567.94;5036839;28;20041;-77
2022/08/10 01:15:13;;;;;;;70.78;44.78;;;;;;;22.37;60.13;99566.56;5020243;28;20183;-77
2022/08/10 01:18:03;;;;;;;70.88;43.83;;;;;;;22.23;60.09;99549.25;5053016;28;20049;-77
2022/08/10 01:20:42;;;;;;;65.82;41.58;;;;;;;22.32;60.26;99563.59;5019931;28;20076;-77
2022/08/10 01:23:26;;;;;;;64.43;40.45;;;;;;;22.44;59.85;99579.22;5036329;28;20040;-78
2022/08/10 01:26:09;;;;;;;60.70;40.17;;;;;;;22.44;59.83;99573.75;5054076;28;20045;-77
2022/08/10 01:28:59;;;;;;;55.50;37.95;;;;;;;22.47;59.42;99567.94;5036218;28;20044;-78
2022/08/10 01:31:32;;;;;;;59.10;37.10;;;;;;;22.59;59.17;99578.31;5053056;28;20072;-77
2022/08/10 01:34:08;;;;;;;49.42;34.92;;;;;;;22.54;58.97;99570.72;5052712;28;20108;-77
2022/08/10 01:36:43;;;;;;;50.47;34.90;;;;;;;22.62;58.61;99578.78;5054004;28;20545;-77
2022/08/10 01:39:15;;;;;;;56.92;34.60;;;;;;;22.64;58.23;99581.28;5052259;28;20083;-77
2022/08/10 01:41:44;;;;;;;58.25;33.42;;;;;;;22.67;58.18;99578.19;5052709;28;20043;-77
2022/08/10 01:44:17;;;;;;;55.85;32.15;;;;;;;22.70;57.88;99585.97;5035874;28;20040;-78
2022/08/10 01:46:54;;;;;;;44.63;30.85;;;;;;;22.72;57.14;99592.91;5035404;28;20522;-77
2022/08/10 01:49:23;;;;;;;48.42;32.50;;;;;;;22.69;57.29;99573.38;5053480;28;20049;-78
2022/08/10 01:51:53;;;;;;;46.42;30.00;;;;;;;22.84;57.18;99593.22;5052611;28;20049;-78
2022/08/10 01:54:23;;;;;;;42.63;30.80;;;;;;;22.89;56.93;99589.91;5034756;28;20036;-78
2022/08/10 01:56:54;;;;;;;46.75;31.48;;;;;;;22.92;56.77;99589.56;5052537;28;20132;-78
2022/08/10 01:59:29;;;;;;;52.10;32.45;;;;;;;22.95;56.81;99594.63;5035497;28;20400;-79
2022/08/10 02:02:00;;;;;;;44.80;31.42;;;;;;;23.05;57.03;99595.09;5019081;28;20040;-78
2022/08/10 02:04:29;;;;;;;48.00;32.03;;;;;;;23.10;56.48;99589.09;5018515;28;20041;-78
2022/08/10 02:06:56;;;;;;;52.08;33.05;;;;;;;23.17;56.34;99590.81;5018824;28;20037;-79
2022/08/10 02:09:26;;;;;;;47.95;32.35;;;;;;;23.25;56.32;99600.72;5018820;28;20063;-79
2022/08/10 02:11:54;;;;;;;53.83;33.90;;;;;;;23.22;55.86;99599.25;5052018;28;20045;-78
2022/08/10 02:14:22;;;;;;;50.30;33.67;;;;;;;23.21;56.01;99592.09;5051856;28;20056;-78
2022/08/10 02:16:51;;;;;;;56.87;36.40;;;;;;;23.26;56.39;99605.13;5052972;28;20052;-78
2022/08/10 02:19:22;;;;;;;43.45;32.55;;;;;;;23.32;56.06;99604.34;5051726;28;20483;-77
2022/08/10 02:21:52;;;;;;;47.47;34.05;;;;;;;23.28;56.30;99592.13;5036092;28;20041;-79
2022/08/10 02:24:20;;;;;;;45.22;33.40;;;;;;;23.37;56.04;99609.22;5018319;28;20045;-79
2022/08/10 02:26:47;;;;;;;52.33;33.50;;;;;;;23.39;55.45;99601.66;5018497;28;20071;-77
2022/08/10 02:29:16;;;;;;;58.13;33.20;;;;;;;23.36;55.14;99589.28;5052770;28;20080;-78
2022/08/10 02:31:44;;;;;;;59.83;32.13;;;;;;;23.41;55.08;99597.69;5052801;28;20087;-77
2022/08/10 02:34:12;;;;;;;47.55;32.50;;;;;;;23.48;54.81;99609.50;5051697;28;20052;-78
2022/08/10 02:36:44;;;;;;;50.15;36.13;;;;;;;23.52;55.13;99605.31;5051434;28;20369;-77
2022/08/10 02:39:10;;;;;;;56.65;33.08;;;;;;;23.58;54.81;99608.28;5034260;28;20065;-77
2022/08/10 02:41:44;;;;;;;47.15;31.45;;;;;;;23.66;54.58;99616.34;5052346;28;20102;-88
2022/08/10 02:44:26;;;;;;;53.97;33.63;;;;;;;23.76;54.44;99616.81;5051219;28;20045;-82
2022/08/10 02:47:01;;;;;;;68.78;36.05;;;;;;;23.86;54.08;99616.47;5051085;28;20052;-75
2022/08/10 02:49:34;;;;;;;53.00;35.22;;;;;;;23.94;54.07;99614.41;5051536;28;20041;-80
2022/08/10 02:52:16;;;;;;;54.30;34.35;;;;;;;24.04;53.95;99614.03;5017791;28;20049;-76
2022/08/10 02:54:51;;;;;;;56.17;34.50;;;;;;;24.07;53.32;99601.84;5034200;28;20084;-78
2022/08/10 02:57:26;;;;;;;54.90;35.08;;;;;;;24.13;52.88;99609.22;5017977;28;20041;-76
2022/08/10 03:00:02;;;;;;;52.63;34.47;;;;;;;24.22;52.80;99616.19;5018046;28;20072;-78
2022/08/10 03:02:35;;;;;;;50.22;34.17;;;;;;;24.26;52.46;99609.28;5052681;28;20123;-77
2022/08/10 03:05:13;;;;;;;46.33;34.13;;;;;;;24.27;52.01;99604.66;5051087;28;20110;-76
2022/08/10 03:07:59;;;;;;;50.50;33.65;;;;;;;24.36;52.19;99607.00;5038453;28;20045;-78
2022/08/10 03:10:28;;;;;;;51.40;33.25;;;;;;;24.38;51.67;99599.44;5022145;28;20504;-77
2022/08/10 03:13:04;;;;;;;47.90;33.90;;;;;;;24.44;51.22;99604.09;5038829;28;20053;-77
2022/08/10 03:15:33;;;;;;;51.05;34.38;;;;;;;24.52;51.32;99611.25;5038564;28;20048;-80
2022/08/10 03:18:00;;;;;;;56.60;36.22;;;;;;;24.52;50.92;99610.44;5037849;28;20166;-77
2022/08/10 03:20:34;;;;;;;58.55;33.28;;;;;;;24.59;50.69;99614.03;5054626;28;20044;-77
2022/08/10 03:23:04;;;;;;;55.35;32.88;;;;;;;24.62;50.83;99610.88;5022312;28;20044;-79
2022/08/10 03:25:31;;;;;;;66.97;34.60;;;;;;;24.58;50.51;99606.88;5054817;28;20072;-81
2022/08/10 03:27:59;;;;;;;49.65;33.85;;;;;;;24.58;50.92;99595.94;5038471;28;20036;-90
2022/08/10 03:30:26;;;;;;;61.08;34.97;;;;;;;24.72;50.56;99611.31;5038299;28;20041;-80
2022/08/10 03:32:53;;;;;;;64.63;34.25;;;;;;;24.80;50.43;99613.84;5055210;28;20169;-77
2022/08/10 03:35:21;;;;;;;51.40;35.60;;;;;;;24.81;50.18;99610.06;5056133;28;20523;-84
2022/08/10 03:37:47;;;;;;;62.70;36.80;;;;;;;24.86;50.30;99618.50;5054698;28;20040;-75
2022/08/10 03:40:12;;;;;;;61.25;36.65;;;;;;;24.88;50.00;99612.81;5054443;28;20064;-75
2022/08/10 03:42:40;;;;;;;52.72;34.58;;;;;;;24.88;49.98;99616.38;5055683;28;20523;-78
2022/08/10 03:45:08;;;;;;;47.65;31.25;;;;;;;24.71;49.84;99606.88;5054878;28;20083;-80
2022/08/10 03:47:38;;;;;;;51.92;30.85;;;;;;;24.59;50.15;99616.75;5054056;28;20048;-78
2022/08/10 03:50:05;;;;;;;53.30;31.52;;;;;;;24.71;50.30;99605.03;5038149;28;20052;-77
2022/08/10 03:52:32;;;;;;;54.15;28.50;;;;;;;24.64;49.82;99604.16;5037833;28;20047;-76
2022/08/10 03:54:59;;;;;;;44.55;27.58;;;;;;;24.71;49.35;99604.16;5054568;28;20033;-75
2022/08/10 03:57:28;;;;;;;41.35;25.85;;;;;;;24.84;48.95;99619.75;5054419;28;20055;-79
2022/08/10 03:59:55;;;;;;;44.38;24.60;;;;;;;24.85;48.21;99605.03;5037786;28;20556;-75
2022/08/10 04:02:21;;;;;;;35.13;25.05;;;;;;;24.93;48.01;99618.47;5037676;28;20459;-75
2022/08/10 04:04:47;;;;;;;37.15;23.45;;;;;;;25.07;47.98;99622.06;5055664;28;20049;-76
2022/08/10 04:07:14;;;;;;;37.20;22.02;;;;;;;25.13;47.17;99619.38;5054124;28;20051;-80
2022/08/10 04:09:40;;;;;;;30.75;21.13;;;;;;;25.19;46.88;99623.16;5054383;28;20041;-78
2022/08/10 04:12:06;;;;;;;33.47;20.65;;;;;;;25.21;46.03;99620.22;5053917;28;20040;-81
2022/08/10 04:14:32;;;;;;;37.42;19.88;;;;;;;25.23;46.28;99624.41;5055312;28;20106;-74
2022/08/10 04:16:58;;;;;;;32.17;19.92;;;;;;;25.31;45.94;99626.97;5054764;28;20472;-74
2022/08/10 04:19:25;;;;;;;27.05;18.85;;;;;;;25.33;45.99;99624.84;5034539;28;20057;-77
2022/08/10 04:22:01;;;;;;;34.67;19.45;;;;;;;25.51;45.63;99626.94;5038498;28;20075;-79
2022/08/10 04:24:33;;;;;;;32.65;17.60;;;;;;;25.68;44.31;99621.81;5041289;28;20127;-75
2022/08/10 04:27:00;;;;;;;28.88;14.95;;;;;;;25.70;43.37;99633.41;5055170;28;20051;-75
2022/08/10 04:29:26;;;;;;;31.05;16.17;;;;;;;25.77;43.80;99630.69;5037602;28;20424;-75
2022/08/10 04:31:53;;;;;;;24.80;16.90;;;;;;;25.89;43.33;99635.28;5055323;28;20190;-77
2022/08/10 04:34:19;;;;;;;41.58;16.85;;;;;;;25.92;43.23;99626.66;5037430;28;20558;-74
2022/08/10 04:36:48;;;;;;;32.95;17.27;;;;;;;25.97;43.84;99633.38;5037036;28;20047;-74
2022/08/10 04:39:15;;;;;;;24.13;16.15;;;;;;;26.02;43.36;99625.34;5036774;28;20500;-74
2022/08/10 04:41:41;;;;;;;27.92;16.13;;;;;;;26.20;43.76;99630.97;5037516;28;20243;-75
2022/08/10 04:44:07;;;;;;;26.75;16.30;;;;;;;26.31;42.65;99638.50;5037039;28;20044;-77
2022/08/10 04:46:33;;;;;;;25.48;16.23;;;;;;;26.29;42.44;99640.63;5016973;28;20087;-75
2022/08/10 04:48:59;;;;;;;33.35;16.77;;;;;;;26.28;42.60;99625.22;5017016;28;20081;-78
2022/08/10 04:51:25;;;;;;;31.73;17.63;;;;;;;26.35;41.92;99631.53;5033469;28;20046;-76
2022/08/10 04:53:51;;;;;;;27.13;16.60;;;;;;;26.39;42.24;99634.66;5033509;28;20049;-76
2022/08/10 04:56:17;;;;;;;32.03;16.65;;;;;;;26.42;42.21;99636.97;5016734;28;20053;-78
2022/08/10 04:58:43;;;;;;;36.92;17.33;;;;;;;26.51;42.13;99632.09;5033024;28;20515;-77
2022/08/10 05:01:09;;;;;;;29.48;17.50;;;;;;;26.58;42.13;99628.25;5017186;28;20048;-76
2022/08/10 05:03:35;;;;;;;37.50;17.98;;;;;;;26.67;42.02;99631.63;5014763;28;20699;-77
2022/08/10 05:06:01;;;;;;;33.90;17.35;;;;;;;26.71;42.08;99621.03;5030497;28;20084;-78
2022/08/10 05:08:27;;;;;;;35.92;16.80;;;;;;;26.98;41.89;99616.19;5014167;28;20077;-78
2022/08/10 05:10:53;;;;;;;35.97;18.70;;;;;;;27.17;42.03;99623.47;5030339;28;20079;-77
2022/08/10 05:13:19;;;;;;;39.63;18.35;;;;;;;27.34;42.27;99632.81;5031157;28;20045;-77
2022/08/10 05:15:45;;;;;;;28.35;17.02;;;;;;;27.50;41.91;99625.06;5031714;28;20045;-78
2022/08/10 05:18:11;;;;;;;32.53;16.98;;;;;;;27.64;41.75;99621.09;5015021;28;20492;-77
2022/08/10 05:20:37;;;;;;;24.80;16.38;;;;;;;27.62;41.45;99611.44;5016298;28;20049;-77
2022/08/10 05:23:03;;;;;;;28.98;16.08;;;;;;;27.59;41.21;99619.03;5016339;28;20049;-76
2022/08/10 05:25:29;;;;;;;30.13;17.20;;;;;;;27.66;41.62;99624.47;5032678;28;20497;-77
2022/08/10 05:27:55;;;;;;;21.85;15.70;;;;;;;27.73;40.84;99625.25;5016408;28;20488;-77
2022/08/10 05:30:22;;;;;;;25.77;15.73;;;;;;;27.80;40.14;99612.31;5033618;28;20099;-76
2022/08/10 05:32:48;;;;;;;27.67;14.50;;;;;;;27.87;39.91;99620.50;5016068;28;20501;-76
2022/08/10 05:35:14;;;;;;;33.80;15.02;;;;;;;28.02;40.17;99622.81;4999938;28;20128;-77
2022/08/10 05:37:42;;;;;;;30.08;13.88;;;;;;;28.22;39.43;99617.94;5032756;28;20481;-78
2022/08/10 05:40:08;;;;;;;26.40;12.75;;;;;;;28.36;38.52;99602.13;4999511;28;20057;-76
2022/08/10 05:42:35;;;;;;;22.20;12.68;;;;;;;28.51;37.78;99605.31;5033549;28;20557;-77
2022/08/10 05:45:01;;;;;;;28.40;12.73;;;;;;;28.57;37.78;99611.78;5032257;28;20048;-77
2022/08/10 05:47:27;;;;;;;25.88;12.93;;;;;;;28.63;37.58;99610.84;4999720;28;20504;-78
2022/08/10 05:49:54;;;;;;;22.48;12.57;;;;;;;28.75;36.17;99610.88;5033661;28;20378;-78
2022/08/10 05:52:20;;;;;;;29.48;12.95;;;;;;;28.75;36.17;99597.97;5032036;28;20419;-77
2022/08/10 05:54:46;;;;;;;24.75;12.45;;;;;;;28.73;35.36;99611.09;5015638;28;20037;-78
2022/08/10 05:57:15;;;;;;;25.27;11.88;;;;;;;28.66;34.93;99612.28;5032538;28;20045;-79
2022/08/10 06:00:01;;;;;;;;;;;;;;;28.58;35.45;99621.69;5015962;28;20056;-77
2022/08/10 06:02:37;;;;;;;19.33;11.55;;;;;;;28.61;35.71;99615.75;5032129;28;20452;-77
2022/08/10 06:05:06;;;;;;;24.95;11.55;;;;;;;28.78;35.77;99610.44;5015624;28;20049;-78
2022/08/10 06:07:35;;;;;;;19.48;10.65;;;;;;;28.92;35.40;99600.03;5016329;28;20049;-78
2022/08/10 06:10:02;;;;;;;19.63;11.27;;;;;;;29.18;35.10;99607.88;5032097;28;20416;-77
2022/08/10 06:12:32;;;;;;;19.48;10.75;;;;;;;29.40;34.37;99610.06;5033063;28;20053;-77
2022/08/10 06:15:02;;;;;;;19.50;11.13;;;;;;;29.43;35.06;99613.16;5015391;28;20045;-78
2022/08/10 06:17:31;;;;;;;21.13;11.98;;;;;;;29.67;34.51;99608.50;5000175;28;20037;-78
2022/08/10 06:20:00;;;;;;;20.60;12.10;;;;;;;29.72;34.26;99600.38;5032036;28;20049;-77
2022/08/10 06:22:28;;;;;;;20.85;12.10;;;;;;;29.86;34.24;99611.13;5032958;28;20065;-79
2022/08/10 06:25:01;;;;;;;20.20;11.77;;;;;;;29.90;34.44;99612.31;5033197;28;20045;-78
2022/08/10 06:27:29;;;;;;;23.17;11.55;;;;;;;30.16;34.37;99606.28;5031908;28;20079;-77
2022/08/10 06:29:57;;;;;;;20.67;11.77;;;;;;;30.21;34.09;99600.91;5033001;28;20072;-78
2022/08/10 06:32:27;;;;;;;21.30;12.63;;;;;;;30.38;33.14;99605.63;4999131;28;20049;-77
2022/08/10 06:34:55;;;;;;;24.85;12.05;;;;;;;30.44;33.19;99607.41;5015771;28;20140;-77
2022/08/10 06:37:26;;;;;;;18.10;12.07;;;;;;;30.41;33.33;99613.41;5015195;28;20059;-77
2022/08/10 06:39:52;;;;;;;20.90;12.27;;;;;;;30.45;32.99;99592.53;5032627;28;20057;-79
2022/08/10 06:42:32;;;;;;;17.58;11.88;;;;;;;30.63;32.87;99600.59;5032150;28;20079;-77
2022/08/10 06:45:05;;;;;;;23.52;12.77;;;;;;;30.83;33.02;99604.84;5015759;28;20037;-78
2022/08/10 06:47:50;;;;;;;26.73;12.30;;;;;;;30.96;32.65;99604.53;5031870;28;20037;-77
2022/08/10 06:50:22;;;;;;;28.35;12.38;;;;;;;31.01;32.71;99592.72;5031895;28;20041;-78
2022/08/10 06:52:51;;;;;;;23.52;12.30;;;;;;;30.90;32.38;99591.72;5031590;28;20049;-78
2022/08/10 06:55:20;;;;;;;26.35;13.50;;;;;;;30.86;33.08;99594.13;5032626;28;20132;-78
2022/08/10 06:57:47;;;;;;;25.92;11.60;;;;;;;31.01;31.97;99585.28;5032392;28;20396;-78
2022/08/10 07:00:13;;;;;;;21.67;11.90;;;;;;;31.22;32.24;99586.44;5032395;28;20103;-77
2022/08/10 07:02:49;;;;;;;23.00;12.75;;;;;;;31.39;32.06;99575.41;5031187;28;20037;-78
2022/08/10 07:05:20;;;;;;;29.88;11.85;;;;;;;31.59;31.51;99586.75;5031566;28;20413;-77
2022/08/10 07:07:49;;;;;;;19.55;11.27;;;;;;;31.59;31.19;99580.38;4998642;28;20140;-78
2022/08/10 07:10:20;;;;;;;27.65;11.20;;;;;;;31.39;30.98;99581.75;4998713;28;20068;-78
2022/08/10 07:12:49;;;;;;;18.25;10.30;;;;;;;31.58;31.41;99596.13;4998783;28;20091;-77
2022/08/10 07:15:17;;;;;;;36.92;9.48;;;;;;;31.69;30.43;99575.84;5032701;28;20056;-78
2022/08/10 07:17:45;;;;;;;18.02;7.47;;;;;;;31.81;29.73;99588.69;5031100;28;20091;-78
2022/08/10 07:20:17;;;;;;;15.35;7.55;;;;;;;32.08;29.43;99581.38;5031146;28;20049;-77
2022/08/10 07:22:47;;;;;;;17.67;8.23;;;;;;;32.03;29.66;99580.44;5014938;28;20516;-77
2022/08/10 07:25:15;;;;;;;18.15;7.55;;;;;;;32.15;28.61;99590.28;5033011;28;20058;-77
2022/08/10 07:27:43;;;;;;;11.88;6.75;;;;;;;32.11;28.25;99591.88;5016250;28;20040;-79
2022/08/10 07:30:09;;;;;;;20.58;7.35;;;;;;;32.20;28.59;99596.97;4998765;28;20073;-77
2022/08/10 07:32:37;;;;;;;14.52;6.63;;;;;;;32.50;28.57;99591.81;5032705;28;20045;-78
2022/08/10 07:35:03;;;;;;;11.30;6.82;;;;;;;32.40;28.51;99591.72;5015836;28;20128;-78
2022/08/10 07:37:35;;;;;;;25.98;7.13;;;;;;;32.39;28.55;99578.94;5015034;28;20568;-77
2022/08/10 07:40:02;;;;;;;15.18;7.00;;;;;;;32.62;28.03;99589.72;5030927;28;20512;-77
2022/08/10 07:42:31;;;;;;;12.10;6.35;;;;;;;32.42;27.97;99585.91;5014816;28;20044;-77
2022/08/10 07:44:58;;;;;;;17.08;6.40;;;;;;;32.50;27.68;99580.75;5014402;28;20490;-77
2022/08/10 07:47:40;;;;;;;12.35;6.93;;;;;;;32.71;27.95;99575.41;5032217;28;20056;-79
2022/08/10 07:50:09;;;;;;;15.50;6.55;;;;;;;32.89;27.40;99578.63;4997985;28;20129;-77
2022/08/10 07:52:37;;;;;;;12.57;5.95;;;;;;;33.10;27.29;99579.66;5033821;28;20044;-77
2022/08/10 07:55:05;;;;;;;19.50;6.00;;;;;;;32.94;26.84;99575.09;5034834;28;20053;-78
2022/08/10 07:57:35;;;;;;;11.32;5.38;;;;;;;33.17;26.70;99578.59;5001896;28;20140;-78
2022/08/10 08:00:06;;;;;;;14.10;5.32;;;;;;;33.38;26.52;99577.66;5018014;28;20041;-78
2022/08/10 08:02:58;;;;;;;13.52;5.38;;;;;;;33.50;26.52;99578.31;5036191;28;20381;-78
2022/08/10 08:05:26;;;;;;;11.77;5.95;;;;;;;33.86;26.19;99586.00;5017900;28;20091;-77
2022/08/10 08:07:55;;;;;;;8.40;5.43;;;;;;;34.14;25.64;99579.19;5035698;28;20497;-78
2022/08/10 08:10:27;;;;;;;11.88;5.25;;;;;;;34.11;25.37;99582.50;5017811;28;20519;-78
2022/08/10 08:12:57;;;;;;;10.65;5.65;;;;;;;34.12;25.64;99575.88;5035543;28;20081;-78
2022/08/10 08:15:26;;;;;;;15.77;6.18;;;;;;;34.17;25.21;99581.44;5017976;28;20045;-77
2022/08/10 08:17:52;;;;;;;;;;;;;;;34.46;25.48;99574.31;5035633;28;20045;-78
2022/08/10 08:20:23;;;;;;;9.82;5.40;;;;;;;34.46;24.82;99571.53;5034440;28;19921;-77
2022/08/10 08:22:50;;;;;;;10.77;5.28;;;;;;;34.55;25.00;99567.13;5034972;28;20072;-77
2022/08/10 08:25:18;;;;;;;8.05;5.07;;;;;;;34.61;24.37;99558.81;5034177;28;20053;-78
2022/08/10 08:27:51;;;;;;;11.85;5.50;;;;;;;34.65;24.29;99559.94;5034908;28;20535;-78
2022/08/10 08:30:20;;;;;;;13.00;5.55;;;;;;;34.91;24.40;99558.00;5035247;28;20524;-78
2022/08/10 08:32:48;;;;;;;10.68;5.60;;;;;;;35.03;24.26;99545.53;5001388;28;20048;-77
2022/08/10 08:35:17;;;;;;;11.63;6.20;;;;;;;35.26;24.18;99554.38;5017305;28;20168;-78
2022/08/10 08:37:45;;;;;;;14.52;6.03;;;;;;;35.40;23.86;99558.25;5035403;28;20107;-78
2022/08/10 08:40:32;;;;;;;9.63;6.28;;;;;;;35.43;22.89;99562.41;5000847;28;20064;-77
2022/08/10 08:43:33;;;;;;;13.05;6.40;;;;;;;35.42;23.11;99563.53;5017448;28;20076;-78
2022/08/10 08:46:17;;;;;;;21.17;6.47;;;;;;;34.94;23.35;99555.50;5001151;28;20072;-78
2022/08/10 08:49:09;;;;;;;8.63;5.65;;;;;;;34.98;23.23;99542.72;5000897;28;20500;-77
2022/08/10 08:52:05;;;;;;;11.20;5.10;;;;;;;35.33;23.52;99549.38;5016317;28;20100;-78
2022/08/10 08:54:40;;;;;;;10.00;5.57;;;;;;;35.49;23.27;99545.47;5001044;28;20045;-79
2022/08/10 08:57:40;;;;;;;13.45;5.68;;;;;;;35.38;23.14;99549.34;5000793;28;20069;-77
2022/08/10 09:00:13;;;;;;;10.20;4.93;;;;;;;35.40;23.24;99544.38;5033190;28;20049;-78
2022/08/10 09:03:00;;;;;;;12.02;5.47;;;;;;;35.26;23.13;99544.09;5033246;28;20045;-77
2022/08/10 09:05:45;;;;;;;8.65;5.28;;;;;;;35.27;22.99;99529.09;5016394;28;20496;-78
2022/08/10 09:08:49;;;;;;;10.45;5.97;;;;;;;35.56;23.39;99536.84;5000337;28;20049;-77
2022/08/10 09:11:18;;;;;;;6.95;5.97;;;;;;;35.35;22.55;99536.00;5016561;28;20048;-79
2022/08/10 09:13:56;;;;;;;11.80;5.55;;;;;;;35.10;23.20;99522.19;5033351;28;20056;-78
2022/08/10 09:16:59;;;;;;;14.18;5.90;;;;;;;35.58;23.15;99530.97;5033098;28;20073;-78
2022/08/10 09:19:46;;;;;;;14.75;5.50;;;;;;;35.76;22.76;99519.25;5016217;28;20412;-78
2022/08/10 09:22:39;;;;;;;15.25;5.35;;;;;;;36.18;22.45;99527.16;5034426;28;20065;-77
2022/08/10 09:25:21;;;;;;;12.05;5.15;;;;;;;36.53;21.87;99525.28;4995695;28;20041;-78
2022/08/10 09:28:08;;;;;;;14.43;6.20;;;;;;;36.19;22.13;99522.41;5012267;28;20042;-77
2022/08/10 09:30:43;;;;;;;12.55;6.45;;;;;;;36.40;21.44;99528.66;5012346;28;20459;-78
2022/08/10 09:33:11;;;;;;;10.32;6.10;;;;;;;36.20;21.74;99524.88;4979609;28;20042;-77
2022/08/10 09:35:54;;;;;;;10.05;7.05;;;;;;;35.98;21.82;99516.94;5012037;28;20132;-77
2022/08/10 09:38:50;;;;;;;13.55;6.95;;;;;;;36.12;22.31;99516.31;4978959;28;20428;-76
2022/08/10 09:41:40;;;;;;;11.50;6.65;;;;;;;36.17;22.07;99514.31;4979285;28;20524;-77
2022/08/10 09:44:32;;;;;;;11.23;6.65;;;;;;;36.49;22.06;99526.97;4979170;28;20049;-77
2022/08/10 09:47:17;;;;;;;19.02;6.72;;;;;;;36.94;21.82;99528.59;4979238;28;20077;-78
2022/08/10 09:50:01;;;;;;;13.23;6.45;;;;;;;37.30;21.03;99519.84;4979220;28;20046;-77
2022/08/10 09:52:38;;;;;;;20.33;7.20;;;;;;;37.49;20.81;99516.34;4995404;28;20077;-77
2022/08/10 09:55:43;;;;;;;15.20;6.47;;;;;;;37.80;20.38;99517.66;4980816;28;20168;-78
2022/08/10 09:58:47;;;;;;;10.13;6.30;;;;;;;37.53;20.53;99517.41;5031395;28;20056;-78
2022/08/10 10:01:25;;;;;;;16.80;7.43;;;;;;;37.77;20.46;99515.44;5038674;28;20381;-78
2022/08/10 10:04:14;;;;;;;14.00;6.82;;;;;;;38.22;20.09;99517.97;5042308;28;20511;-79
2022/08/10 10:06:54;;;;;;;11.05;6.90;;;;;;;38.31;20.00;99514.16;5015741;28;20045;-78
2022/08/10 10:09:35;;;;;;;14.85;6.90;;;;;;;38.45;19.55;99507.88;5034023;28;20056;-79
2022/08/10 10:12:34;;;;;;;13.38;6.78;;;;;;;39.07;19.52;99514.91;5033265;28;20094;-77
2022/08/10 10:15:22;;;;;;;17.15;6.85;;;;;;;39.69;18.50;99511.81;5015252;28;20072;-77
2022/08/10 10:18:06;;;;;;;15.55;6.53;;;;;;;39.73;18.42;99503.63;5015516;28;20191;-77
2022/08/10 10:20:36;;;;;;;13.35;6.93;;;;;;;39.21;18.99;99500.97;5015523;28;20044;-77
2022/08/10 10:23:11;;;;;;;19.48;7.70;;;;;;;39.33;18.70;99498.53;5015467;28;20045;-77
2022/08/10 10:25:37;;;;;;;14.07;8.68;;;;;;;39.62;18.57;99493.78;5031493;28;20469;-78
2022/08/10 10:28:23;;;;;;;14.20;9.68;;;;;;;39.65;18.63;99498.75;5031302;28;20037;-74
2022/08/10 10:31:06;;;;;;;15.43;8.77;;;;;;;39.69;18.20;99489.44;5015185;28;20045;-74
2022/08/10 10:33:45;;;;;;;13.73;7.72;;;;;;;40.21;18.23;99484.41;4998964;28;20072;-74
2022/08/10 10:36:14;;;;;;;10.93;7.32;;;;;;;40.60;17.93;99484.88;5031893;28;20038;-74
2022/08/10 10:38:43;;;;;;;16.58;7.65;;;;;;;40.24;17.95;99472.53;5031249;28;20072;-73
2022/08/10 10:41:27;;;;;;;19.58;8.02;;;;;;;40.58;18.04;99481.56;5031489;28;20037;-73
2022/08/10 10:44:29;;;;;;;12.52;7.60;;;;;;;40.78;17.52;99481.06;5031493;28;20045;-75
2022/08/10 10:47:19;;;;;;;15.70;8.23;;;;;;;39.92;18.16;99478.31;5031153;28;20047;-76
2022/08/10 10:49:48;;;;;;;15.90;8.20;;;;;;;39.71;18.73;99463.94;4998702;28;20086;-74
2022/08/10 10:52:50;;;;;;;13.35;8.65;;;;;;;39.51;18.33;99476.38;5031450;28;20405;-74
2022/08/10 10:55:42;;;;;;;15.90;8.35;;;;;;;39.12;18.68;99463.69;5032397;28;20037;-74
2022/08/10 10:58:29;;;;;;;15.23;8.90;;;;;;;38.98;19.33;99463.66;5014588;28;20099;-75
2022/08/10 11:01:00;;;;;;;15.25;8.77;;;;;;;39.06;19.34;99453.72;5031517;28;20108;-74
2022/08/10 11:03:57;;;;;;;29.85;8.60;;;;;;;39.07;19.15;99452.59;5015229;28;20048;-74
2022/08/10 11:06:52;;;;;;;20.60;9.68;;;;;;;38.83;19.18;99455.56;5015034;28;20040;-74
2022/08/10 11:09:30;;;;;;;25.10;9.80;;;;;;;38.57;19.63;99453.19;5032559;28;20056;-73
2022/08/10 11:12:02;;;;;;;15.10;10.02;;;;;;;38.07;19.65;99446.44;5031081;28;20079;-73
2022/08/10 11:14:48;;;;;;;11.85;9.65;;;;;;;37.47;20.24;99444.16;5014878;28;20080;-73
2022/08/10 11:17:24;;;;;;;15.18;9.18;;;;;;;37.12;20.37;99462.06;5032379;28;20136;-74
2022/08/10 11:20:11;;;;;;;19.58;8.73;;;;;;;36.77;20.60;99461.28;5032266;28;20041;-74
2022/08/10 11:23:01;;;;;;;16.03;9.63;;;;;;;36.46;21.13;99472.69;5015175;28;20073;-74
2022/08/10 11:25:30;;;;;;;18.00;9.75;;;;;;;36.24;21.29;99480.63;5031103;28;20041;-74
2022/08/10 11:28:09;;;;;;;11.90;9.40;;;;;;;35.70;22.00;99493.41;5017226;28;20037;-75
2022/08/10 11:30:42;;;;;;;13.15;9.15;;;;;;;35.25;22.41;99495.19;5035064;28;20049;-76
2022/08/10 11:33:33;;;;;;;19.25;9.43;;;;;;;34.94;23.25;99488.84;5035171;28;20076;-78
2022/08/10 11:36:04;;;;;;;20.67;9.90;;;;;;;34.89;23.25;99493.56;5035136;28;20049;-73
2022/08/10 11:38:51;;;;;;;13.50;8.88;;;;;;;34.81;23.41;99503.28;5022627;28;20072;-73
2022/08/10 11:41:29;;;;;;;20.88;9.90;;;;;;;34.65;23.69;99501.63;5034717;28;20107;-74
2022/08/10 11:44:12;;;;;;;24.75;9.68;;;;;;;34.68;23.38;99509.38;5031376;28;20040;-75
2022/08/10 11:46:46;;;;;;;17.52;9.82;;;;;;;34.36;23.50;99513.22;5023727;28;20038;-74
2022/08/10 11:49:46;;;;;;;17.00;9.60;;;;;;;34.08;23.73;99517.34;5018500;28;20052;-75